sensor_id;sensor_type;location;lat;lon;timestamp;temperature;humidity
11532;DHT22;5822;51.000;5.874;2023-06-14T00:01:51;21.60;99.90
11532;DHT22;5822;51.000;5.874;2023-06-14T00:04:16;21.60;99.90
11532;DHT22;5822;51.000;5.874;2023-06-14T00:06:43;21.60;99.90
11532;DHT22;5822;51.000;5.874;2023-06-14T00:09:11;21.60;99.90
11532;DHT22;5822;51.000;5.874;2023-06-14T00:11:43;21.60;99.90
11532;DHT22;5822;51.000;5.874;2023-06-14T00:14:09;21.50;99.90
11532;DHT22;5822;51.000;5.874;2023-06-14T00:16:35;21.50;99.90
11532;DHT22;5822;51.000;5.874;2023-06-14T00:19:01;21.50;99.90
11532;DHT22;5822;51.000;5.874;2023-06-14T00:21:29;21.50;99.90
11532;DHT22;5822;51.000;5.874;2023-06-14T00:23:55;21.40;99.90
11532;DHT22;5822;51.000;5.874;2023-06-14T00:26:21;21.40;99.90
11532;DHT22;5822;51.000;5.874;2023-06-14T00:28:47;21.30;99.90
11532;DHT22;5822;51.000;5.874;2023-06-14T00:31:12;21.30;99.90
11532;DHT22;5822;51.000;5.874;2023-06-14T00:33:38;21.30;99.90
11532;DHT22;5822;51.000;5.874;2023-06-14T00:36:04;21.30;99.90
11532;DHT22;5822;51.000;5.874;2023-06-14T00:38:29;21.30;99.90
11532;DHT22;5822;51.000;5.874;2023-06-14T00:40:55;21.20;99.90
11532;DHT22;5822;51.000;5.874;2023-06-14T00:43:21;21.20;99.90
11532;DHT22;5822;51.000;5.874;2023-06-14T00:45:46;21.20;99.90
11532;DHT22;5822;51.000;5.874;2023-06-14T00:48:13;21.20;99.90
11532;DHT22;5822;51.000;5.874;2023-06-14T00:50:40;21.20;99.90
11532;DHT22;5822;51.000;5.874;2023-06-14T00:53:06;21.20;99.90
11532;DHT22;5822;51.000;5.874;2023-06-14T00:55:32;21.20;99.90
11532;DHT22;5822;51.000;5.874;2023-06-14T00:57:58;21.10;99.90
11532;DHT22;5822;51.000;5.874;2023-06-14T01:00:24;21.10;99.90
11532;DHT22;5822;51.000;5.874;2023-06-14T01:02:50;21.10;99.90
11532;DHT22;5822;51.000;5.874;2023-06-14T01:05:16;21.10;99.90
11532;DHT22;5822;51.000;5.874;2023-06-14T01:13:29;21.00;99.90
11532;DHT22;5822;51.000;5.874;2023-06-14T01:15:57;21.00;99.90
11532;DHT22;5822;51.000;5.874;2023-06-14T01:18:24;21.00;99.90
11532;DHT22;5822;51.000;5.874;2023-06-14T01:20:51;21.00;99.90
11532;DHT22;5822;51.000;5.874;2023-06-14T01:23:21;20.90;99.90
11532;DHT22;5822;51.000;5.874;2023-06-14T01:25:48;20.90;99.90
11532;DHT22;5822;51.000;5.874;2023-06-14T01:28:19;20.90;99.90
11532;DHT22;5822;51.000;5.874;2023-06-14T01:30:48;20.90;99.90
11532;DHT22;5822;51.000;5.874;2023-06-14T01:33:16;20.90;99.90
11532;DHT22;5822;51.000;5.874;2023-06-14T01:35:45;20.80;99.90
11532;DHT22;5822;51.000;5.874;2023-06-14T01:38:13;20.80;99.90
11532;DHT22;5822;51.000;5.874;2023-06-14T01:40:39;20.80;99.90
11532;DHT22;5822;51.000;5.874;2023-06-14T01:43:05;20.80;99.90
11532;DHT22;5822;51.000;5.874;2023-06-14T01:45:33;20.80;99.90
11532;DHT22;5822;51.000;5.874;2023-06-14T01:47:59;20.70;99.90
11532;DHT22;5822;51.000;5.874;2023-06-14T01:50:31;20.70;99.90
11532;DHT22;5822;51.000;5.874;2023-06-14T01:52:57;20.60;99.90
11532;DHT22;5822;51.000;5.874;2023-06-14T01:55:23;20.60;99.90
11532;DHT22;5822;51.000;5.874;2023-06-14T01:57:51;20.60;99.90
11532;DHT22;5822;51.000;5.874;2023-06-14T02:00:17;20.60;99.90
11532;DHT22;5822;51.000;5.874;2023-06-14T02:02:43;20.50;99.90
11532;DHT22;5822;51.000;5.874;2023-06-14T02:05:10;20.50;99.90
11532;DHT22;5822;51.000;5.874;2023-06-14T02:07:36;20.50;99.90
11532;DHT22;5822;51.000;5.874;2023-06-14T02:10:03;20.50;99.90
11532;DHT22;5822;51.000;5.874;2023-06-14T02:12:28;20.40;99.90
11532;DHT22;5822;51.000;5.874;2023-06-14T02:14:55;20.40;99.90
11532;DHT22;5822;51.000;5.874;2023-06-14T02:17:21;20.40;99.90
11532;DHT22;5822;51.000;5.874;2023-06-14T02:19:47;20.40;99.90
11532;DHT22;5822;51.000;5.874;2023-06-14T02:22:14;20.40;99.90
11532;DHT22;5822;51.000;5.874;2023-06-14T02:24:41;20.30;99.90
11532;DHT22;5822;51.000;5.874;2023-06-14T02:27:10;20.30;99.90
11532;DHT22;5822;51.000;5.874;2023-06-14T02:29:36;20.30;99.90
11532;DHT22;5822;51.000;5.874;2023-06-14T02:32:05;20.20;99.90
11532;DHT22;5822;51.000;5.874;2023-06-14T02:34:33;20.20;99.90
11532;DHT22;5822;51.000;5.874;2023-06-14T02:36:59;20.20;99.90
11532;DHT22;5822;51.000;5.874;2023-06-14T02:39:25;20.20;99.90
11532;DHT22;5822;51.000;5.874;2023-06-14T02:41:50;20.20;99.90
11532;DHT22;5822;51.000;5.874;2023-06-14T02:44:19;20.20;99.90
11532;DHT22;5822;51.000;5.874;2023-06-14T02:46:45;20.20;99.90
11532;DHT22;5822;51.000;5.874;2023-06-14T02:49:13;20.20;99.90
11532;DHT22;5822;51.000;5.874;2023-06-14T02:51:39;20.20;99.90
11532;DHT22;5822;51.000;5.874;2023-06-14T02:54:05;20.20;99.90
11532;DHT22;5822;51.000;5.874;2023-06-14T02:56:31;20.20;99.90
11532;DHT22;5822;51.000;5.874;2023-06-14T02:58:59;20.20;99.90
11532;DHT22;5822;51.000;5.874;2023-06-14T03:01:26;20.10;99.90
11532;DHT22;5822;51.000;5.874;2023-06-14T03:04:03;20.10;99.90
11532;DHT22;5822;51.000;5.874;2023-06-14T03:06:32;20.10;99.90
11532;DHT22;5822;51.000;5.874;2023-06-14T03:08:58;20.00;99.90
11532;DHT22;5822;51.000;5.874;2023-06-14T03:11:32;20.00;99.90
11532;DHT22;5822;51.000;5.874;2023-06-14T03:13:59;20.00;99.90
11532;DHT22;5822;51.000;5.874;2023-06-14T03:16:25;20.00;99.90
11532;DHT22;5822;51.000;5.874;2023-06-14T03:18:54;19.90;99.90
11532;DHT22;5822;51.000;5.874;2023-06-14T03:21:20;19.90;99.90
11532;DHT22;5822;51.000;5.874;2023-06-14T03:23:48;19.80;99.90
11532;DHT22;5822;51.000;5.874;2023-06-14T03:26:15;19.80;99.90
11532;DHT22;5822;51.000;5.874;2023-06-14T03:28:44;19.80;99.90
11532;DHT22;5822;51.000;5.874;2023-06-14T03:31:11;19.80;99.90
11532;DHT22;5822;51.000;5.874;2023-06-14T03:33:37;19.80;99.90
11532;DHT22;5822;51.000;5.874;2023-06-14T03:36:03;19.80;99.90
11532;DHT22;5822;51.000;5.874;2023-06-14T03:38:29;19.80;99.90
11532;DHT22;5822;51.000;5.874;2023-06-14T03:40:54;19.70;99.90
11532;DHT22;5822;51.000;5.874;2023-06-14T03:43:20;19.70;99.90
11532;DHT22;5822;51.000;5.874;2023-06-14T03:45:46;19.70;99.90
11532;DHT22;5822;51.000;5.874;2023-06-14T03:48:11;19.60;99.90
11532;DHT22;5822;51.000;5.874;2023-06-14T03:50:37;19.70;99.90
11532;DHT22;5822;51.000;5.874;2023-06-14T03:53:04;19.60;99.90
11532;DHT22;5822;51.000;5.874;2023-06-14T03:55:30;19.70;99.90
11532;DHT22;5822;51.000;5.874;2023-06-14T03:57:59;19.60;99.90
11532;DHT22;5822;51.000;5.874;2023-06-14T04:00:25;19.60;99.90
11532;DHT22;5822;51.000;5.874;2023-06-14T04:02:51;19.60;99.90
11532;DHT22;5822;51.000;5.874;2023-06-14T04:05:17;19.60;99.90
11532;DHT22;5822;51.000;5.874;2023-06-14T04:07:47;19.60;99.90
11532;DHT22;5822;51.000;5.874;2023-06-14T04:10:15;19.60;99.90
11532;DHT22;5822;51.000;5.874;2023-06-14T04:12:41;19.60;99.90
11532;DHT22;5822;51.000;5.874;2023-06-14T04:15:08;19.60;99.90
11532;DHT22;5822;51.000;5.874;2023-06-14T04:17:34;19.60;99.90
11532;DHT22;5822;51.000;5.874;2023-06-14T04:20:01;19.60;99.90
11532;DHT22;5822;51.000;5.874;2023-06-14T04:22:29;19.60;99.90
11532;DHT22;5822;51.000;5.874;2023-06-14T04:24:56;19.60;99.90
11532;DHT22;5822;51.000;5.874;2023-06-14T04:27:22;19.60;99.90
11532;DHT22;5822;51.000;5.874;2023-06-14T04:29:54;19.60;99.90
11532;DHT22;5822;51.000;5.874;2023-06-14T04:32:28;19.70;99.90
11532;DHT22;5822;51.000;5.874;2023-06-14T04:34:59;19.70;99.90
11532;DHT22;5822;51.000;5.874;2023-06-14T04:37:27;19.70;99.90
11532;DHT22;5822;51.000;5.874;2023-06-14T04:39:55;19.80;99.90
11532;DHT22;5822;51.000;5.874;2023-06-14T04:42:22;19.80;99.90
11532;DHT22;5822;51.000;5.874;2023-06-14T04:44:51;19.90;99.90
11532;DHT22;5822;51.000;5.874;2023-06-14T04:47:17;19.90;99.90
11532;DHT22;5822;51.000;5.874;2023-06-14T04:49:42;19.90;99.90
11532;DHT22;5822;51.000;5.874;2023-06-14T04:52:08;20.00;99.90
11532;DHT22;5822;51.000;5.874;2023-06-14T04:54:36;20.00;99.90
11532;DHT22;5822;51.000;5.874;2023-06-14T04:57:04;20.00;99.90
11532;DHT22;5822;51.000;5.874;2023-06-14T04:59:31;20.00;99.90
11532;DHT22;5822;51.000;5.874;2023-06-14T05:01:59;20.00;99.90
11532;DHT22;5822;51.000;5.874;2023-06-14T05:04:25;20.00;99.90
11532;DHT22;5822;51.000;5.874;2023-06-14T05:06:52;20.00;99.90
11532;DHT22;5822;51.000;5.874;2023-06-14T05:09:20;20.10;99.90
11532;DHT22;5822;51.000;5.874;2023-06-14T05:11:45;20.10;99.90
11532;DHT22;5822;51.000;5.874;2023-06-14T05:14:13;20.10;99.90
11532;DHT22;5822;51.000;5.874;2023-06-14T05:16:39;20.10;99.90
11532;DHT22;5822;51.000;5.874;2023-06-14T05:19:05;20.20;99.90
11532;DHT22;5822;51.000;5.874;2023-06-14T05:21:31;20.20;99.90
11532;DHT22;5822;51.000;5.874;2023-06-14T05:23:59;20.20;99.90
11532;DHT22;5822;51.000;5.874;2023-06-14T05:26:24;20.20;99.90
11532;DHT22;5822;51.000;5.874;2023-06-14T05:28:57;20.30;99.90
11532;DHT22;5822;51.000;5.874;2023-06-14T05:31:26;20.30;99.90
11532;DHT22;5822;51.000;5.874;2023-06-14T05:33:52;20.30;99.90
11532;DHT22;5822;51.000;5.874;2023-06-14T05:36:19;20.30;99.90
11532;DHT22;5822;51.000;5.874;2023-06-14T05:38:45;20.30;99.90
11532;DHT22;5822;51.000;5.874;2023-06-14T05:41:11;20.40;99.90
11532;DHT22;5822;51.000;5.874;2023-06-14T05:43:36;20.40;99.90
11532;DHT22;5822;51.000;5.874;2023-06-14T05:46:08;20.40;99.90
11532;DHT22;5822;51.000;5.874;2023-06-14T05:48:34;20.50;99.90
11532;DHT22;5822;51.000;5.874;2023-06-14T05:51:00;20.50;99.90
11532;DHT22;5822;51.000;5.874;2023-06-14T05:53:25;20.50;99.90
11532;DHT22;5822;51.000;5.874;2023-06-14T05:55:51;20.60;99.90
11532;DHT22;5822;51.000;5.874;2023-06-14T05:58:21;20.60;99.90
11532;DHT22;5822;51.000;5.874;2023-06-14T06:00:47;20.60;99.90
11532;DHT22;5822;51.000;5.874;2023-06-14T06:03:12;20.60;99.90
11532;DHT22;5822;51.000;5.874;2023-06-14T06:05:38;20.70;99.90
11532;DHT22;5822;51.000;5.874;2023-06-14T06:08:04;20.70;99.90
11532;DHT22;5822;51.000;5.874;2023-06-14T06:10:30;20.80;99.90
11532;DHT22;5822;51.000;5.874;2023-06-14T06:12:56;20.80;99.90
11532;DHT22;5822;51.000;5.874;2023-06-14T06:15:21;20.80;99.90
11532;DHT22;5822;51.000;5.874;2023-06-14T06:17:47;20.80;99.90
11532;DHT22;5822;51.000;5.874;2023-06-14T06:20:13;20.90;99.90
11532;DHT22;5822;51.000;5.874;2023-06-14T06:22:38;20.90;99.90
11532;DHT22;5822;51.000;5.874;2023-06-14T06:25:05;20.90;99.90
11532;DHT22;5822;51.000;5.874;2023-06-14T06:27:31;21.00;99.90
11532;DHT22;5822;51.000;5.874;2023-06-14T06:29:57;21.00;99.90
11532;DHT22;5822;51.000;5.874;2023-06-14T06:32:23;21.00;99.90
11532;DHT22;5822;51.000;5.874;2023-06-14T06:34:48;21.10;99.90
11532;DHT22;5822;51.000;5.874;2023-06-14T06:37:14;21.10;99.90
11532;DHT22;5822;51.000;5.874;2023-06-14T06:39:40;21.10;99.90
11532;DHT22;5822;51.000;5.874;2023-06-14T06:42:05;21.10;99.90
11532;DHT22;5822;51.000;5.874;2023-06-14T06:44:32;21.20;99.90
11532;DHT22;5822;51.000;5.874;2023-06-14T06:46:58;21.20;99.90
11532;DHT22;5822;51.000;5.874;2023-06-14T06:49:23;21.20;99.90
11532;DHT22;5822;51.000;5.874;2023-06-14T06:52:06;21.30;99.90
11532;DHT22;5822;51.000;5.874;2023-06-14T06:54:34;21.30;99.90
11532;DHT22;5822;51.000;5.874;2023-06-14T06:57:01;21.30;99.90
11532;DHT22;5822;51.000;5.874;2023-06-14T06:59:27;21.30;99.90
11532;DHT22;5822;51.000;5.874;2023-06-14T07:01:52;21.30;99.90
11532;DHT22;5822;51.000;5.874;2023-06-14T07:04:18;21.40;99.90
11532;DHT22;5822;51.000;5.874;2023-06-14T07:06:45;21.40;99.90
11532;DHT22;5822;51.000;5.874;2023-06-14T07:09:12;21.40;99.90
11532;DHT22;5822;51.000;5.874;2023-06-14T07:11:39;21.50;99.90
11532;DHT22;5822;51.000;5.874;2023-06-14T07:14:05;21.50;99.90
11532;DHT22;5822;51.000;5.874;2023-06-14T07:16:31;21.50;99.90
11532;DHT22;5822;51.000;5.874;2023-06-14T07:18:57;21.50;99.90
11532;DHT22;5822;51.000;5.874;2023-06-14T07:21:22;21.50;99.90
11532;DHT22;5822;51.000;5.874;2023-06-14T07:23:48;21.50;99.90
11532;DHT22;5822;51.000;5.874;2023-06-14T07:26:13;21.50;99.90
11532;DHT22;5822;51.000;5.874;2023-06-14T07:28:39;21.50;99.90
11532;DHT22;5822;51.000;5.874;2023-06-14T07:31:05;21.60;99.90
11532;DHT22;5822;51.000;5.874;2023-06-14T07:33:31;21.60;99.90
11532;DHT22;5822;51.000;5.874;2023-06-14T07:35:56;21.60;99.90
11532;DHT22;5822;51.000;5.874;2023-06-14T07:38:22;21.60;99.90
11532;DHT22;5822;51.000;5.874;2023-06-14T07:40:48;21.60;99.90
11532;DHT22;5822;51.000;5.874;2023-06-14T07:43:13;21.60;99.90
11532;DHT22;5822;51.000;5.874;2023-06-14T07:45:41;21.60;99.90
11532;DHT22;5822;51.000;5.874;2023-06-14T07:48:06;21.60;99.90
11532;DHT22;5822;51.000;5.874;2023-06-14T07:50:32;21.60;99.90
11532;DHT22;5822;51.000;5.874;2023-06-14T07:52:58;21.70;99.90
11532;DHT22;5822;51.000;5.874;2023-06-14T07:55:23;21.60;99.90
11532;DHT22;5822;51.000;5.874;2023-06-14T07:57:50;21.60;99.90
11532;DHT22;5822;51.000;5.874;2023-06-14T08:00:16;21.70;99.90
11532;DHT22;5822;51.000;5.874;2023-06-14T08:02:44;21.70;99.90
11532;DHT22;5822;51.000;5.874;2023-06-14T08:05:10;21.70;99.90
11532;DHT22;5822;51.000;5.874;2023-06-14T08:07:39;21.70;99.90
11532;DHT22;5822;51.000;5.874;2023-06-14T08:10:06;21.70;99.90
11532;DHT22;5822;51.000;5.874;2023-06-14T08:12:32;21.70;99.90
11532;DHT22;5822;51.000;5.874;2023-06-14T08:14:58;21.70;99.90
11532;DHT22;5822;51.000;5.874;2023-06-14T08:17:24;21.70;99.90
11532;DHT22;5822;51.000;5.874;2023-06-14T08:19:50;21.70;99.90
11532;DHT22;5822;51.000;5.874;2023-06-14T08:22:16;21.80;99.90
11532;DHT22;5822;51.000;5.874;2023-06-14T08:24:43;21.80;99.90
11532;DHT22;5822;51.000;5.874;2023-06-14T08:27:10;21.80;99.90
11532;DHT22;5822;51.000;5.874;2023-06-14T08:29:35;21.80;99.90
11532;DHT22;5822;51.000;5.874;2023-06-14T08:32:01;21.80;99.90
11532;DHT22;5822;51.000;5.874;2023-06-14T08:34:27;21.80;99.90
11532;DHT22;5822;51.000;5.874;2023-06-14T08:36:53;21.90;99.90
11532;DHT22;5822;51.000;5.874;2023-06-14T08:39:19;21.90;99.90
11532;DHT22;5822;51.000;5.874;2023-06-14T08:41:47;21.90;99.90
11532;DHT22;5822;51.000;5.874;2023-06-14T08:44:18;21.90;99.90
11532;DHT22;5822;51.000;5.874;2023-06-14T08:46:44;21.90;99.90
11532;DHT22;5822;51.000;5.874;2023-06-14T08:49:16;21.80;99.90
11532;DHT22;5822;51.000;5.874;2023-06-14T08:51:43;21.90;99.90
11532;DHT22;5822;51.000;5.874;2023-06-14T08:54:10;21.90;99.90
11532;DHT22;5822;51.000;5.874;2023-06-14T08:56:38;21.90;99.90
11532;DHT22;5822;51.000;5.874;2023-06-14T08:59:07;21.90;99.90
11532;DHT22;5822;51.000;5.874;2023-06-14T09:01:37;21.90;99.90
11532;DHT22;5822;51.000;5.874;2023-06-14T09:04:03;21.90;99.90
11532;DHT22;5822;51.000;5.874;2023-06-14T09:06:31;21.90;99.90
11532;DHT22;5822;51.000;5.874;2023-06-14T09:08:57;21.90;99.90
11532;DHT22;5822;51.000;5.874;2023-06-14T09:11:23;22.00;99.90
11532;DHT22;5822;51.000;5.874;2023-06-14T09:13:49;22.00;99.90
11532;DHT22;5822;51.000;5.874;2023-06-14T09:16:15;22.00;99.90
11532;DHT22;5822;51.000;5.874;2023-06-14T09:18:45;22.00;99.90
11532;DHT22;5822;51.000;5.874;2023-06-14T09:21:14;22.00;99.90
11532;DHT22;5822;51.000;5.874;2023-06-14T09:23:41;22.00;99.90
11532;DHT22;5822;51.000;5.874;2023-06-14T09:26:11;22.00;99.90
11532;DHT22;5822;51.000;5.874;2023-06-14T09:28:48;22.00;99.90
11532;DHT22;5822;51.000;5.874;2023-06-14T09:31:15;22.00;99.90
11532;DHT22;5822;51.000;5.874;2023-06-14T09:33:45;22.00;99.90
11532;DHT22;5822;51.000;5.874;2023-06-14T09:36:16;22.00;99.90
11532;DHT22;5822;51.000;5.874;2023-06-14T09:38:51;22.00;99.90
11532;DHT22;5822;51.000;5.874;2023-06-14T09:41:16;22.00;99.90
11532;DHT22;5822;51.000;5.874;2023-06-14T09:43:43;22.00;99.90
11532;DHT22;5822;51.000;5.874;2023-06-14T09:46:11;22.00;99.90
11532;DHT22;5822;51.000;5.874;2023-06-14T09:48:36;22.00;99.90
11532;DHT22;5822;51.000;5.874;2023-06-14T09:51:02;22.00;99.90
11532;DHT22;5822;51.000;5.874;2023-06-14T09:53:30;22.00;99.90
11532;DHT22;5822;51.000;5.874;2023-06-14T09:55:58;22.00;99.90
11532;DHT22;5822;51.000;5.874;2023-06-14T09:58:26;22.00;99.90
11532;DHT22;5822;51.000;5.874;2023-06-14T10:00:54;22.00;99.90
11532;DHT22;5822;51.000;5.874;2023-06-14T10:03:25;22.10;99.90
11532;DHT22;5822;51.000;5.874;2023-06-14T10:05:54;22.10;99.90
11532;DHT22;5822;51.000;5.874;2023-06-14T10:08:25;22.10;99.90
11532;DHT22;5822;51.000;5.874;2023-06-14T10:10:55;22.10;99.90
11532;DHT22;5822;51.000;5.874;2023-06-14T10:13:20;22.10;99.90
11532;DHT22;5822;51.000;5.874;2023-06-14T10:15:55;22.10;99.90
11532;DHT22;5822;51.000;5.874;2023-06-14T10:21:27;22.10;99.90
11532;DHT22;5822;51.000;5.874;2023-06-14T10:23:55;22.20;99.90
11532;DHT22;5822;51.000;5.874;2023-06-14T10:26:23;22.20;99.90
11532;DHT22;5822;51.000;5.874;2023-06-14T10:29:08;22.10;99.90
11532;DHT22;5822;51.000;5.874;2023-06-14T10:31:44;22.20;99.90
11532;DHT22;5822;51.000;5.874;2023-06-14T10:34:11;22.10;99.90
11532;DHT22;5822;51.000;5.874;2023-06-14T10:36:40;22.20;99.90
11532;DHT22;5822;51.000;5.874;2023-06-14T10:39:15;22.20;99.90
11532;DHT22;5822;51.000;5.874;2023-06-14T10:41:41;22.20;99.90
11532;DHT22;5822;51.000;5.874;2023-06-14T10:46:49;22.20;99.90
11532;DHT22;5822;51.000;5.874;2023-06-14T10:49:18;22.20;99.90
11532;DHT22;5822;51.000;5.874;2023-06-14T10:51:50;22.20;99.90
11532;DHT22;5822;51.000;5.874;2023-06-14T10:54:18;22.20;99.90
11532;DHT22;5822;51.000;5.874;2023-06-14T10:56:50;22.20;99.90
11532;DHT22;5822;51.000;5.874;2023-06-14T10:59:17;22.20;99.90
11532;DHT22;5822;51.000;5.874;2023-06-14T11:04:14;22.20;99.90
11532;DHT22;5822;51.000;5.874;2023-06-14T11:06:47;22.20;99.90
11532;DHT22;5822;51.000;5.874;2023-06-14T11:11:56;22.30;99.90
11532;DHT22;5822;51.000;5.874;2023-06-14T11:14:22;22.30;99.90
11532;DHT22;5822;51.000;5.874;2023-06-14T11:16:51;22.30;99.90
11532;DHT22;5822;51.000;5.874;2023-06-14T11:19:17;22.30;99.90
11532;DHT22;5822;51.000;5.874;2023-06-14T11:21:43;22.30;99.90
11532;DHT22;5822;51.000;5.874;2023-06-14T11:24:12;22.30;99.90
11532;DHT22;5822;51.000;5.874;2023-06-14T11:26:38;22.30;99.90
11532;DHT22;5822;51.000;5.874;2023-06-14T11:29:04;22.30;99.90
11532;DHT22;5822;51.000;5.874;2023-06-14T11:31:30;22.40;99.90
11532;DHT22;5822;51.000;5.874;2023-06-14T11:33:57;22.40;99.90
11532;DHT22;5822;51.000;5.874;2023-06-14T11:36:26;22.40;99.90
11532;DHT22;5822;51.000;5.874;2023-06-14T11:38:58;22.40;99.90
11532;DHT22;5822;51.000;5.874;2023-06-14T11:41:25;22.40;99.90
11532;DHT22;5822;51.000;5.874;2023-06-14T11:43:53;22.40;99.90
11532;DHT22;5822;51.000;5.874;2023-06-14T11:46:19;22.30;99.90
11532;DHT22;5822;51.000;5.874;2023-06-14T11:48:49;22.30;99.90
11532;DHT22;5822;51.000;5.874;2023-06-14T11:51:15;22.40;99.90
11532;DHT22;5822;51.000;5.874;2023-06-14T11:53:42;22.40;99.90
11532;DHT22;5822;51.000;5.874;2023-06-14T11:56:08;22.40;99.90
11532;DHT22;5822;51.000;5.874;2023-06-14T11:58:34;22.40;99.90
11532;DHT22;5822;51.000;5.874;2023-06-14T12:01:00;22.40;99.90
11532;DHT22;5822;51.000;5.874;2023-06-14T12:03:28;22.40;99.90
11532;DHT22;5822;51.000;5.874;2023-06-14T12:06:09;22.40;99.90
11532;DHT22;5822;51.000;5.874;2023-06-14T12:08:38;22.40;99.90
11532;DHT22;5822;51.000;5.874;2023-06-14T12:11:06;22.50;99.90
11532;DHT22;5822;51.000;5.874;2023-06-14T12:13:34;22.50;99.90
11532;DHT22;5822;51.000;5.874;2023-06-14T12:15:59;22.50;99.90
11532;DHT22;5822;51.000;5.874;2023-06-14T12:18:37;22.50;99.90
11532;DHT22;5822;51.000;5.874;2023-06-14T12:21:04;22.50;99.90
11532;DHT22;5822;51.000;5.874;2023-06-14T12:23:46;22.50;99.90
11532;DHT22;5822;51.000;5.874;2023-06-14T12:26:19;22.50;99.90
11532;DHT22;5822;51.000;5.874;2023-06-14T12:28:47;22.50;99.90
11532;DHT22;5822;51.000;5.874;2023-06-14T12:31:15;22.50;99.90
11532;DHT22;5822;51.000;5.874;2023-06-14T12:33:42;22.60;99.90
11532;DHT22;5822;51.000;5.874;2023-06-14T12:36:09;22.60;99.90
11532;DHT22;5822;51.000;5.874;2023-06-14T12:38:36;22.60;99.90
11532;DHT22;5822;51.000;5.874;2023-06-14T12:41:02;22.70;99.90
11532;DHT22;5822;51.000;5.874;2023-06-14T12:43:27;22.80;99.90
11532;DHT22;5822;51.000;5.874;2023-06-14T12:45:53;22.80;99.90
11532;DHT22;5822;51.000;5.874;2023-06-14T12:48:19;22.80;99.90
11532;DHT22;5822;51.000;5.874;2023-06-14T12:50:45;22.80;99.90
11532;DHT22;5822;51.000;5.874;2023-06-14T12:53:11;22.80;99.90
11532;DHT22;5822;51.000;5.874;2023-06-14T12:55:37;22.80;99.90
11532;DHT22;5822;51.000;5.874;2023-06-14T12:58:03;22.80;99.90
11532;DHT22;5822;51.000;5.874;2023-06-14T13:00:29;22.80;99.90
11532;DHT22;5822;51.000;5.874;2023-06-14T13:02:57;22.80;99.90
11532;DHT22;5822;51.000;5.874;2023-06-14T13:05:23;22.90;99.90
11532;DHT22;5822;51.000;5.874;2023-06-14T13:07:49;23.00;99.90
11532;DHT22;5822;51.000;5.874;2023-06-14T13:10:16;23.20;99.90
11532;DHT22;5822;51.000;5.874;2023-06-14T13:12:42;23.60;99.90
11532;DHT22;5822;51.000;5.874;2023-06-14T13:15:08;24.20;99.90
11532;DHT22;5822;51.000;5.874;2023-06-14T13:17:35;24.80;99.90
11532;DHT22;5822;51.000;5.874;2023-06-14T13:20:07;25.20;99.90
11532;DHT22;5822;51.000;5.874;2023-06-14T13:22:34;25.70;99.90
11532;DHT22;5822;51.000;5.874;2023-06-14T13:25:00;26.00;99.90
11532;DHT22;5822;51.000;5.874;2023-06-14T13:27:26;26.30;99.90
11532;DHT22;5822;51.000;5.874;2023-06-14T13:29:53;26.40;99.90
11532;DHT22;5822;51.000;5.874;2023-06-14T13:34:55;26.70;99.90
11532;DHT22;5822;51.000;5.874;2023-06-14T13:37:20;26.70;99.90
11532;DHT22;5822;51.000;5.874;2023-06-14T13:39:46;26.80;99.90
11532;DHT22;5822;51.000;5.874;2023-06-14T13:42:12;26.70;99.90
11532;DHT22;5822;51.000;5.874;2023-06-14T13:44:40;26.60;99.90
11532;DHT22;5822;51.000;5.874;2023-06-14T13:47:06;26.60;99.90
11532;DHT22;5822;51.000;5.874;2023-06-14T13:49:34;26.60;99.90
11532;DHT22;5822;51.000;5.874;2023-06-14T13:52:01;26.60;99.90
11532;DHT22;5822;51.000;5.874;2023-06-14T13:54:26;26.50;99.90
11532;DHT22;5822;51.000;5.874;2023-06-14T13:56:52;26.30;99.90
11532;DHT22;5822;51.000;5.874;2023-06-14T13:59:21;26.20;99.90
11532;DHT22;5822;51.000;5.874;2023-06-14T14:01:47;25.90;99.90
11532;DHT22;5822;51.000;5.874;2023-06-14T14:04:13;25.70;99.90
11532;DHT22;5822;51.000;5.874;2023-06-14T14:06:39;25.50;99.90
11532;DHT22;5822;51.000;5.874;2023-06-14T14:09:04;25.40;99.90
11532;DHT22;5822;51.000;5.874;2023-06-14T14:11:30;25.30;99.90
11532;DHT22;5822;51.000;5.874;2023-06-14T14:13:58;25.20;99.90
11532;DHT22;5822;51.000;5.874;2023-06-14T14:16:24;25.00;99.90
11532;DHT22;5822;51.000;5.874;2023-06-14T14:18:50;25.00;99.90
11532;DHT22;5822;51.000;5.874;2023-06-14T14:21:15;25.00;99.90
11532;DHT22;5822;51.000;5.874;2023-06-14T14:23:41;25.00;99.90
11532;DHT22;5822;51.000;5.874;2023-06-14T14:26:07;24.90;99.90
11532;DHT22;5822;51.000;5.874;2023-06-14T14:28:32;24.90;99.90
11532;DHT22;5822;51.000;5.874;2023-06-14T14:30:58;24.90;99.90
11532;DHT22;5822;51.000;5.874;2023-06-14T14:33:25;24.80;99.90
11532;DHT22;5822;51.000;5.874;2023-06-14T14:35:50;24.90;99.90
11532;DHT22;5822;51.000;5.874;2023-06-14T14:38:16;24.90;99.90
11532;DHT22;5822;51.000;5.874;2023-06-14T14:40:43;24.90;99.90
11532;DHT22;5822;51.000;5.874;2023-06-14T14:43:09;24.90;99.90
11532;DHT22;5822;51.000;5.874;2023-06-14T14:45:36;25.40;99.90
11532;DHT22;5822;51.000;5.874;2023-06-14T14:48:01;25.30;99.90
11532;DHT22;5822;51.000;5.874;2023-06-14T14:50:28;25.30;99.90
11532;DHT22;5822;51.000;5.874;2023-06-14T14:52:54;25.10;99.90
11532;DHT22;5822;51.000;5.874;2023-06-14T14:55:19;25.00;99.90
11532;DHT22;5822;51.000;5.874;2023-06-14T14:57:46;24.80;99.90
11532;DHT22;5822;51.000;5.874;2023-06-14T15:00:13;24.70;99.90
11532;DHT22;5822;51.000;5.874;2023-06-14T15:02:39;24.70;99.90
11532;DHT22;5822;51.000;5.874;2023-06-14T15:05:05;24.60;99.90
11532;DHT22;5822;51.000;5.874;2023-06-14T15:07:31;24.70;99.90
11532;DHT22;5822;51.000;5.874;2023-06-14T15:09:59;24.90;99.90
11532;DHT22;5822;51.000;5.874;2023-06-14T15:12:25;25.00;99.90
11532;DHT22;5822;51.000;5.874;2023-06-14T15:14:51;25.00;99.90
11532;DHT22;5822;51.000;5.874;2023-06-14T15:17:20;24.80;99.90
11532;DHT22;5822;51.000;5.874;2023-06-14T15:19:47;24.70;99.90
11532;DHT22;5822;51.000;5.874;2023-06-14T15:22:13;24.70;99.90
11532;DHT22;5822;51.000;5.874;2023-06-14T15:24:41;24.70;99.90
11532;DHT22;5822;51.000;5.874;2023-06-14T15:27:06;24.70;99.90
11532;DHT22;5822;51.000;5.874;2023-06-14T15:29:32;24.70;99.90
11532;DHT22;5822;51.000;5.874;2023-06-14T15:31:58;24.60;99.90
11532;DHT22;5822;51.000;5.874;2023-06-14T15:34:24;24.60;99.90
11532;DHT22;5822;51.000;5.874;2023-06-14T15:36:50;24.60;99.90
11532;DHT22;5822;51.000;5.874;2023-06-14T15:39:15;24.50;99.90
11532;DHT22;5822;51.000;5.874;2023-06-14T15:41:41;24.70;99.90
11532;DHT22;5822;51.000;5.874;2023-06-14T15:44:07;24.70;99.90
11532;DHT22;5822;51.000;5.874;2023-06-14T15:46:33;24.70;99.90
11532;DHT22;5822;51.000;5.874;2023-06-14T15:48:59;24.80;99.90
11532;DHT22;5822;51.000;5.874;2023-06-14T15:51:24;24.80;99.90
11532;DHT22;5822;51.000;5.874;2023-06-14T15:53:50;24.90;99.90
11532;DHT22;5822;51.000;5.874;2023-06-14T15:56:17;25.20;99.90
11532;DHT22;5822;51.000;5.874;2023-06-14T15:58:43;25.20;99.90
11532;DHT22;5822;51.000;5.874;2023-06-14T16:01:09;25.10;99.90
11532;DHT22;5822;51.000;5.874;2023-06-14T16:03:34;25.20;99.90